createdAt,value
2022-12-19T00:00:30.288Z,81.50
2022-12-19T00:02:58.156Z,81.40
2022-12-19T00:05:26.079Z,81.40
2022-12-19T00:07:54.464Z,81.50
2022-12-19T00:10:22.269Z,81.50
2022-12-19T00:12:50.072Z,81.40
2022-12-19T00:15:18.100Z,81.40
2022-12-19T00:17:47.208Z,81.50
2022-12-19T00:20:15.967Z,81.40
2022-12-19T00:22:46.697Z,81.50
2022-12-19T00:25:14.589Z,81.50
2022-12-19T00:27:44.035Z,81.60
2022-12-19T00:30:13.292Z,81.60
2022-12-19T00:32:42.168Z,81.40
2022-12-19T00:35:11.577Z,81.50
2022-12-19T00:37:48.474Z,81.30
2022-12-19T00:40:17.916Z,81.50
2022-12-19T00:42:51.671Z,81.60
2022-12-19T00:45:21.206Z,81.60
2022-12-19T00:47:49.031Z,81.60
2022-12-19T00:50:18.406Z,81.60
2022-12-19T00:52:46.214Z,81.50
2022-12-19T00:55:18.567Z,81.80
2022-12-19T00:57:47.145Z,81.80
2022-12-19T01:00:16.524Z,82.20
2022-12-19T01:02:44.974Z,82.10
2022-12-19T01:05:13.227Z,82.30
2022-12-19T01:07:43.582Z,82.60
2022-12-19T01:10:11.464Z,82.60
2022-12-19T01:12:47.316Z,82.70
2022-12-19T01:15:20.998Z,82.60
2022-12-19T01:17:49.642Z,82.40
2022-12-19T01:20:25.324Z,82.70
2022-12-19T01:23:00.075Z,83.10
2022-12-19T01:25:28.692Z,82.50
2022-12-19T01:27:56.824Z,82.60
2022-12-19T01:30:24.803Z,82.60
2022-12-19T01:32:53.996Z,82.60
2022-12-19T01:35:22.935Z,82.80
2022-12-19T01:37:51.444Z,83.10
2022-12-19T01:40:21.667Z,83.30
2022-12-19T01:42:50.420Z,83.00
2022-12-19T01:45:33.465Z,83.00
2022-12-19T01:48:14.779Z,82.90
2022-12-19T01:50:55.988Z,83.10
2022-12-19T01:53:35.232Z,83.20
2022-12-19T01:56:10.082Z,83.20
2022-12-19T01:58:42.504Z,83.30
2022-12-19T02:01:10.380Z,83.50
2022-12-19T02:03:39.454Z,84.00
2022-12-19T02:06:12.525Z,84.00
2022-12-19T02:08:42.127Z,84.40
2022-12-19T02:11:11.342Z,84.50
2022-12-19T02:13:40.296Z,84.60
2022-12-19T02:16:18.764Z,85.30
2022-12-19T02:18:58.901Z,85.30
2022-12-19T02:21:40.788Z,85.40
2022-12-19T02:24:55.699Z,85.00
2022-12-19T02:27:49.366Z,84.90
2022-12-19T02:30:19.132Z,85.80
2022-12-19T02:32:56.904Z,87.70
2022-12-19T02:35:31.946Z,84.00
2022-12-19T02:38:12.226Z,83.80
2022-12-19T02:40:46.391Z,83.50
2022-12-19T02:43:19.609Z,83.60
2022-12-19T02:45:48.999Z,83.10
2022-12-19T02:48:19.709Z,83.10
2022-12-19T02:50:50.312Z,82.70
2022-12-19T02:53:22.314Z,82.50
2022-12-19T02:56:11.577Z,82.60
2022-12-19T02:58:53.009Z,82.20
2022-12-19T03:01:35.394Z,82.10
2022-12-19T03:04:15.515Z,81.90
2022-12-19T03:06:48.475Z,81.80
2022-12-19T03:09:26.851Z,81.80
2022-12-19T03:12:14.241Z,81.40
2022-12-19T03:14:46.859Z,81.30
2022-12-19T03:17:15.239Z,81.50
2022-12-19T03:19:45.804Z,81.40
2022-12-19T03:22:13.769Z,81.30
2022-12-19T03:24:41.702Z,81.50
2022-12-19T03:27:14.257Z,81.70
2022-12-19T03:29:46.211Z,81.50
2022-12-19T03:32:15.987Z,81.40
2022-12-19T03:34:48.892Z,81.40
2022-12-19T03:37:19.114Z,81.50
2022-12-19T03:39:55.147Z,81.50
2022-12-19T03:42:43.943Z,81.50
2022-12-19T03:45:14.497Z,81.50
2022-12-19T03:47:47.394Z,81.60
2022-12-19T03:50:17.051Z,81.60
2022-12-19T03:52:53.158Z,81.70
2022-12-19T03:55:29.928Z,81.50
2022-12-19T03:58:03.000Z,81.50
2022-12-19T04:00:32.361Z,81.80
2022-12-19T04:03:02.391Z,81.50
2022-12-19T04:05:32.408Z,81.40
2022-12-19T04:08:03.815Z,81.50
2022-12-19T04:10:35.294Z,81.50
2022-12-19T04:13:06.919Z,81.60
2022-12-19T04:15:44.704Z,81.40
2022-12-19T04:18:14.531Z,81.20
2022-12-19T04:20:48.130Z,81.10
2022-12-19T04:23:19.422Z,80.70
2022-12-19T04:25:52.392Z,80.70
2022-12-19T04:28:25.866Z,80.60
2022-12-19T04:30:55.283Z,80.50
2022-12-19T04:33:23.200Z,80.60
2022-12-19T04:35:52.548Z,80.50
2022-12-19T04:38:23.319Z,80.30
2022-12-19T04:40:51.128Z,80.20
2022-12-19T04:43:18.941Z,80.20
2022-12-19T04:45:47.113Z,80.20
2022-12-19T04:48:16.803Z,80.50
2022-12-19T04:50:46.779Z,80.30
2022-12-19T04:53:15.926Z,80.50
2022-12-19T04:55:44.572Z,80.20
2022-12-19T04:58:14.509Z,80.30
2022-12-19T05:00:44.177Z,80.40
2022-12-19T05:03:11.988Z,80.30
2022-12-19T05:05:39.862Z,79.40
2022-12-19T05:08:07.934Z,78.90
2022-12-19T05:10:37.411Z,79.00
2022-12-19T05:13:05.221Z,79.00
2022-12-19T05:15:33.305Z,79.30
2022-12-19T05:18:01.159Z,79.40
2022-12-19T05:20:29.015Z,79.40
2022-12-19T05:22:56.852Z,79.50
2022-12-19T05:25:24.685Z,79.40
2022-12-19T05:27:54.038Z,79.30
2022-12-19T05:30:23.796Z,79.30
2022-12-19T05:32:51.736Z,79.40
2022-12-19T05:35:19.562Z,79.60
2022-12-19T05:37:47.367Z,79.60
2022-12-19T05:40:15.264Z,79.60
2022-12-19T05:42:43.073Z,79.50
2022-12-19T05:45:12.511Z,79.80
2022-12-19T05:47:40.309Z,79.70
2022-12-19T05:50:09.435Z,79.70
2022-12-19T05:52:37.688Z,79.90
2022-12-19T05:55:06.784Z,79.90
2022-12-19T05:57:34.956Z,79.90
2022-12-19T06:00:03.036Z,80.00
2022-12-19T06:02:41.654Z,79.90
2022-12-19T06:05:10.061Z,79.80
2022-12-19T06:07:37.955Z,79.70
2022-12-19T06:10:07.112Z,79.80
2022-12-19T06:12:34.929Z,79.70
2022-12-19T06:15:02.741Z,79.70
2022-12-19T06:17:30.789Z,79.70
2022-12-19T06:19:59.984Z,79.80
2022-12-19T06:22:27.822Z,79.80
2022-12-19T06:24:55.633Z,80.00
2022-12-19T06:27:23.509Z,80.10
2022-12-19T06:29:51.407Z,80.10
2022-12-19T06:32:19.203Z,80.00
2022-12-19T06:35:03.732Z,80.00
2022-12-19T06:37:33.456Z,80.00
2022-12-19T06:40:01.310Z,79.80
2022-12-19T06:42:28.249Z,80.00
2022-12-19T06:44:56.886Z,79.80
2022-12-19T06:47:25.542Z,79.80
2022-12-19T06:49:54.555Z,79.80
2022-12-19T06:52:22.461Z,79.80
2022-12-19T06:54:51.629Z,79.70
2022-12-19T06:57:19.451Z,79.50
2022-12-19T06:59:47.289Z,79.60
2022-12-19T07:02:24.657Z,79.60
2022-12-19T07:04:57.342Z,79.30
2022-12-19T07:07:25.182Z,79.20
2022-12-19T07:09:54.403Z,79.20
2022-12-19T07:12:22.324Z,79.00
2022-12-19T07:14:53.286Z,79.00
2022-12-19T07:17:22.870Z,78.90
2022-12-19T07:19:50.744Z,78.80
2022-12-19T07:22:18.730Z,78.90
2022-12-19T07:24:46.663Z,79.00
2022-12-19T07:27:16.071Z,79.20
2022-12-19T07:29:43.884Z,79.00
2022-12-19T07:32:11.728Z,79.20
2022-12-19T07:34:39.523Z,79.20
2022-12-19T07:37:07.972Z,79.20
2022-12-19T07:39:35.790Z,79.20
2022-12-19T07:42:03.714Z,79.20
2022-12-19T07:44:38.090Z,79.10
2022-12-19T07:47:06.269Z,78.90
2022-12-19T07:49:34.095Z,78.90
2022-12-19T07:52:02.020Z,78.80
2022-12-19T07:54:29.848Z,79.00
2022-12-19T07:56:57.653Z,79.10
2022-12-19T07:59:30.364Z,79.20
2022-12-19T08:02:01.604Z,79.20
2022-12-19T08:04:29.636Z,79.20
2022-12-19T08:06:57.430Z,79.30
2022-12-19T08:09:27.606Z,79.30
2022-12-19T08:11:55.506Z,79.20
2022-12-19T08:14:23.419Z,79.20
2022-12-19T08:17:19.360Z,79.30
2022-12-19T08:19:40.399Z,79.20
2022-12-19T08:22:08.431Z,79.60
2022-12-19T08:24:36.490Z,79.20
2022-12-19T08:27:04.402Z,79.30
2022-12-19T08:29:32.460Z,79.10
2022-12-19T08:32:00.258Z,79.00
2022-12-19T08:34:28.078Z,78.90
2022-12-19T08:36:57.292Z,78.90
2022-12-19T08:39:25.125Z,78.70
2022-12-19T08:41:52.922Z,78.80
2022-12-19T08:44:20.788Z,78.80
2022-12-19T08:46:50.545Z,78.70
2022-12-19T08:49:18.583Z,78.70
2022-12-19T08:51:46.455Z,78.70
2022-12-19T08:54:15.616Z,78.60
2022-12-19T08:56:46.901Z,78.60
2022-12-19T08:59:18.711Z,78.60
2022-12-19T09:01:59.652Z,78.60
2022-12-19T09:06:01.888Z,78.60
2022-12-19T09:07:16.190Z,78.60
2022-12-19T09:09:45.792Z,78.50
2022-12-19T09:12:14.046Z,78.30
2022-12-19T09:14:41.926Z,78.40
2022-12-19T09:17:09.859Z,78.40
2022-12-19T09:19:37.758Z,78.50
2022-12-19T09:22:06.180Z,78.40
2022-12-19T09:24:33.995Z,78.40
2022-12-19T09:27:03.327Z,78.50
2022-12-19T09:29:35.372Z,78.30
2022-12-19T09:32:03.700Z,78.50
2022-12-19T09:34:36.943Z,78.40
2022-12-19T09:37:08.057Z,78.40
2022-12-19T09:39:36.899Z,78.30
2022-12-19T09:42:30.208Z,78.40
2022-12-19T09:45:31.417Z,77.90
2022-12-19T09:48:01.195Z,77.70
2022-12-19T09:50:35.918Z,77.90
2022-12-19T09:53:08.980Z,77.70
2022-12-19T09:55:40.246Z,77.80
2022-12-19T09:58:14.023Z,77.70
2022-12-19T10:00:45.385Z,77.50
2022-12-19T10:03:22.657Z,77.70
2022-12-19T10:07:01.763Z,77.70
2022-12-19T10:09:00.701Z,77.90
2022-12-19T10:12:40.457Z,78.00
2022-12-19T10:14:58.464Z,77.80
2022-12-19T10:17:32.628Z,77.90
2022-12-19T10:20:15.401Z,78.10
2022-12-19T10:22:56.530Z,77.90
2022-12-19T10:25:33.559Z,78.10
2022-12-19T10:28:13.509Z,78.10
2022-12-19T10:30:48.451Z,78.10
2022-12-19T10:33:22.613Z,78.10
2022-12-19T10:35:55.179Z,78.10
2022-12-19T10:38:30.115Z,78.10
2022-12-19T10:41:14.707Z,78.20
2022-12-19T10:43:52.307Z,78.00
2022-12-19T10:46:29.778Z,78.10
2022-12-19T10:48:57.803Z,78.10
2022-12-19T10:51:30.465Z,78.30
2022-12-19T10:54:01.166Z,78.10
2022-12-19T10:56:37.242Z,78.10
2022-12-19T10:59:17.937Z,78.10
2022-12-19T11:02:00.333Z,78.00
2022-12-19T11:04:32.195Z,78.10
2022-12-19T11:07:18.535Z,78.10
2022-12-19T11:09:55.694Z,78.10
2022-12-19T11:16:40.549Z,78.40
2022-12-19T11:20:12.693Z,78.30
2022-12-19T11:25:58.150Z,78.40
2022-12-19T11:29:34.082Z,78.20
2022-12-19T11:30:06.585Z,78.30
2022-12-19T11:30:35.303Z,78.20
2022-12-19T11:32:46.069Z,78.10
2022-12-19T11:35:24.926Z,78.40
2022-12-19T11:37:57.196Z,78.40
2022-12-19T11:40:33.794Z,78.70
2022-12-19T11:46:01.824Z,79.00
2022-12-19T11:48:37.519Z,79.20
2022-12-19T11:51:15.894Z,79.30
2022-12-19T11:53:53.593Z,79.30
2022-12-19T11:56:25.057Z,79.40
2022-12-19T11:58:56.533Z,79.60
2022-12-19T12:01:47.549Z,79.60
2022-12-19T12:04:46.438Z,79.30
2022-12-19T12:07:24.280Z,79.10
2022-12-19T12:13:19.182Z,79.40
2022-12-19T12:13:41.926Z,79.40
2022-12-19T12:20:35.170Z,79.60
2022-12-19T12:31:00.703Z,79.80
2022-12-19T12:31:08.294Z,79.80
2022-12-19T12:31:47.069Z,80.00
2022-12-19T12:31:51.728Z,80.20
2022-12-19T12:35:40.933Z,80.10
2022-12-19T12:40:29.685Z,80.10
2022-12-19T12:43:06.631Z,80.00
2022-12-19T12:45:39.550Z,80.00
2022-12-19T12:48:20.562Z,80.00
2022-12-19T12:50:54.949Z,79.70
2022-12-19T12:53:26.865Z,79.80
2022-12-19T12:55:59.814Z,79.80
2022-12-19T12:59:03.057Z,79.90
2022-12-19T13:01:40.118Z,79.60
2022-12-19T13:04:20.715Z,79.70
2022-12-19T13:07:17.019Z,79.70
2022-12-19T13:09:45.394Z,79.50
2022-12-19T13:12:39.138Z,79.90
2022-12-19T13:15:40.453Z,79.70
2022-12-19T13:18:35.426Z,79.60
2022-12-19T13:21:06.036Z,79.80
2022-12-19T13:23:45.191Z,80.00
2022-12-19T13:26:45.921Z,80.60
2022-12-19T13:29:50.987Z,79.80
2022-12-19T13:32:20.906Z,79.90
2022-12-19T13:35:13.841Z,80.10
2022-12-19T13:39:57.816Z,80.10
2022-12-19T13:40:35.067Z,80.10
2022-12-19T13:43:31.426Z,80.10
2022-12-19T13:46:01.520Z,80.00
2022-12-19T13:48:33.653Z,80.10
2022-12-19T13:51:05.534Z,79.90
2022-12-19T13:53:33.381Z,80.00
2022-12-19T13:56:03.073Z,80.30
2022-12-19T13:58:34.325Z,80.10
2022-12-19T14:01:07.824Z,80.00
2022-12-19T14:03:52.600Z,80.00
2022-12-19T14:06:22.724Z,80.00
2022-12-19T14:09:46.289Z,80.00
2022-12-19T14:13:36.912Z,80.00
2022-12-19T14:15:12.392Z,80.30
2022-12-19T14:17:37.563Z,80.90
2022-12-19T14:22:01.743Z,80.20
2022-12-19T14:23:12.142Z,79.60
2022-12-19T14:28:20.908Z,79.80
2022-12-19T14:28:41.723Z,79.70
2022-12-19T14:31:13.933Z,79.60
2022-12-19T14:34:11.107Z,79.80
2022-12-19T14:36:48.990Z,79.90
2022-12-19T14:39:20.790Z,80.00
2022-12-19T14:42:19.283Z,80.10
2022-12-19T14:53:51.615Z,80.10
2022-12-19T14:54:00.853Z,80.10
2022-12-19T14:54:15.726Z,80.10
2022-12-19T14:54:42.093Z,80.10
2022-12-19T14:56:29.085Z,80.10
2022-12-19T14:59:00.978Z,80.10
2022-12-19T15:01:30.590Z,80.30
2022-12-19T15:04:51.448Z,81.00
2022-12-19T15:07:08.677Z,80.20
2022-12-19T15:10:58.135Z,80.30
2022-12-19T15:14:48.129Z,80.10
2022-12-19T15:15:58.737Z,79.90
2022-12-19T15:18:29.568Z,80.20
2022-12-19T15:20:59.036Z,80.20
2022-12-19T15:23:27.835Z,80.30
2022-12-19T15:26:03.934Z,80.30
2022-12-19T15:28:40.041Z,80.20
2022-12-19T15:31:24.269Z,80.00
2022-12-19T15:34:33.807Z,80.20
2022-12-19T15:36:40.125Z,80.20
2022-12-19T15:39:08.001Z,80.80
2022-12-19T15:41:37.355Z,80.80
2022-12-19T15:44:10.364Z,80.70
2022-12-19T15:46:44.480Z,80.60
2022-12-19T15:49:17.789Z,80.90
2022-12-19T15:51:46.193Z,80.80
2022-12-19T15:54:47.272Z,80.90
2022-12-19T15:57:03.621Z,80.90
2022-12-19T15:59:38.128Z,80.80
2022-12-19T16:02:16.875Z,80.70
2022-12-19T16:04:45.398Z,80.70
2022-12-19T16:07:16.556Z,81.00
2022-12-19T16:09:44.408Z,80.90
2022-12-19T16:12:16.392Z,81.10
2022-12-19T16:14:45.011Z,81.10
2022-12-19T16:17:17.383Z,81.10
2022-12-19T16:19:45.230Z,81.00
2022-12-19T16:22:18.738Z,81.00
2022-12-19T16:24:46.825Z,80.80
2022-12-19T16:27:22.217Z,81.10
2022-12-19T16:29:50.445Z,80.90
2022-12-19T16:32:19.300Z,81.00
2022-12-19T16:34:47.381Z,80.90
2022-12-19T16:37:15.343Z,80.70
2022-12-19T16:39:43.183Z,80.90
2022-12-19T16:42:16.150Z,80.90
2022-12-19T16:44:48.865Z,80.70
2022-12-19T16:47:18.509Z,80.80
2022-12-19T16:49:46.597Z,80.90
2022-12-19T16:52:17.848Z,80.80
2022-12-19T16:54:45.777Z,80.70
2022-12-19T16:57:20.569Z,81.00
2022-12-19T16:59:50.548Z,80.70
2022-12-19T17:02:38.342Z,80.90
2022-12-19T17:05:07.748Z,80.60
2022-12-19T17:07:35.956Z,80.90
2022-12-19T17:10:03.856Z,81.00
2022-12-19T17:12:31.769Z,81.70
2022-12-19T17:15:09.172Z,81.00
2022-12-19T17:17:37.017Z,80.90
2022-12-19T17:20:05.429Z,80.90
2022-12-19T17:22:33.494Z,80.90
2022-12-19T17:25:01.595Z,80.90
2022-12-19T17:27:29.407Z,80.90
2022-12-19T17:29:57.195Z,80.90
2022-12-19T17:32:26.447Z,80.90
2022-12-19T17:34:54.442Z,80.80
2022-12-19T17:37:22.275Z,80.90
2022-12-19T17:39:50.122Z,80.90
2022-12-19T17:42:22.737Z,81.00
2022-12-19T17:44:50.636Z,80.80
2022-12-19T17:47:20.609Z,81.70
2022-12-19T17:49:50.824Z,80.90
2022-12-19T17:52:20.475Z,80.90
2022-12-19T17:54:48.520Z,80.90
2022-12-19T17:57:17.682Z,81.00
2022-12-19T17:59:46.375Z,81.00
2022-12-19T18:02:26.014Z,81.10
2022-12-19T18:04:55.406Z,81.00
2022-12-19T18:07:23.276Z,81.00
2022-12-19T18:09:53.208Z,81.10
2022-12-19T18:12:21.128Z,81.20
2022-12-19T18:14:48.962Z,81.20
2022-12-19T18:17:23.071Z,81.20
2022-12-19T18:19:51.126Z,80.90
2022-12-19T18:22:20.394Z,81.10
2022-12-19T18:24:48.206Z,81.10
2022-12-19T18:27:16.036Z,81.20
2022-12-19T18:29:43.961Z,81.20
2022-12-19T18:32:18.797Z,81.10
2022-12-19T18:34:46.747Z,81.00
2022-12-19T18:37:16.122Z,81.20
2022-12-19T18:39:45.282Z,81.10
2022-12-19T18:42:21.168Z,81.10
2022-12-19T18:44:49.138Z,81.00
2022-12-19T18:47:22.552Z,81.20
2022-12-19T18:49:52.364Z,80.90
2022-12-19T18:52:20.223Z,81.00
2022-12-19T18:54:49.413Z,81.10
2022-12-19T18:57:17.257Z,81.00
2022-12-19T18:59:45.102Z,81.10
2022-12-19T19:02:26.204Z,81.00
2022-12-19T19:04:55.659Z,80.80
2022-12-19T19:07:23.498Z,81.10
2022-12-19T19:09:52.692Z,81.20
2022-12-19T19:12:42.556Z,81.10
2022-12-19T19:15:11.040Z,81.20
2022-12-19T19:17:40.045Z,81.20
2022-12-19T19:20:09.325Z,81.20
2022-12-19T19:22:37.467Z,81.20
2022-12-19T19:25:07.516Z,81.30
2022-12-19T19:27:35.404Z,81.10
2022-12-19T19:30:04.601Z,81.30
2022-12-19T19:32:33.483Z,81.20
2022-12-19T19:35:02.056Z,81.20
2022-12-19T19:37:30.226Z,81.20
2022-12-19T19:39:58.033Z,81.20
2022-12-19T19:42:27.222Z,81.30
2022-12-19T19:44:55.068Z,81.20
2022-12-19T19:47:26.483Z,81.20
2022-12-19T19:49:55.708Z,81.10
2022-12-19T19:52:23.763Z,81.20
2022-12-19T19:54:51.574Z,81.40
2022-12-19T19:57:19.422Z,81.40
2022-12-19T19:59:48.613Z,81.40
2022-12-19T20:02:16.816Z,81.30
2022-12-19T20:04:45.592Z,81.40
2022-12-19T20:07:13.420Z,81.40
2022-12-19T20:09:41.206Z,81.40
2022-12-19T20:12:09.066Z,81.40
2022-12-19T20:14:36.956Z,81.40
2022-12-19T20:17:06.496Z,81.40
2022-12-19T20:19:34.308Z,81.30
2022-12-19T20:22:02.234Z,81.40
2022-12-19T20:24:30.320Z,81.40
2022-12-19T20:26:58.568Z,81.40
2022-12-19T20:29:26.517Z,81.40
2022-12-19T20:31:56.171Z,81.40
2022-12-19T20:34:25.730Z,81.50
2022-12-19T20:36:53.563Z,81.30
2022-12-19T20:39:22.736Z,81.40
2022-12-19T20:41:51.522Z,81.40
2022-12-19T20:44:24.149Z,81.30
2022-12-19T20:46:53.052Z,81.30
2022-12-19T20:49:21.457Z,81.30
2022-12-19T20:51:50.623Z,81.40
2022-12-19T20:54:18.750Z,81.30
2022-12-19T20:56:46.600Z,81.40
2022-12-19T20:59:14.462Z,81.50
2022-12-19T21:01:42.349Z,81.40
2022-12-19T21:04:10.524Z,81.40
2022-12-19T21:06:39.303Z,81.50
2022-12-19T21:09:10.288Z,81.40
2022-12-19T21:11:38.130Z,81.40
2022-12-19T21:14:07.811Z,81.50
2022-12-19T21:16:36.833Z,81.50
2022-12-19T21:19:04.901Z,81.40
2022-12-19T21:21:32.992Z,81.50
2022-12-19T21:24:01.605Z,81.50
2022-12-19T21:26:30.985Z,81.50
2022-12-19T21:28:59.294Z,81.30
2022-12-19T21:31:29.307Z,81.40
2022-12-19T21:33:58.315Z,81.40
2022-12-19T21:36:27.624Z,81.40
2022-12-19T21:38:58.564Z,81.30
2022-12-19T21:41:26.569Z,81.20
2022-12-19T21:43:57.014Z,81.50
2022-12-19T21:46:26.528Z,81.30
2022-12-19T21:48:55.864Z,81.50
2022-12-19T21:51:26.121Z,81.50
2022-12-19T21:53:55.744Z,81.30
2022-12-19T21:56:26.308Z,81.50
2022-12-19T21:58:57.572Z,81.30
2022-12-19T22:01:26.051Z,81.20
2022-12-19T22:03:54.249Z,81.40
2022-12-19T22:06:28.432Z,81.40
2022-12-19T22:08:56.592Z,81.30
2022-12-19T22:11:24.443Z,81.30
2022-12-19T22:13:52.569Z,81.30
2022-12-19T22:16:21.832Z,81.30
2022-12-19T22:18:53.001Z,81.20
2022-12-19T22:21:22.168Z,81.30
2022-12-19T22:23:50.446Z,81.30
2022-12-19T22:26:20.301Z,81.30
2022-12-19T22:28:49.858Z,81.20
2022-12-19T22:31:20.077Z,81.20
2022-12-19T22:33:50.393Z,81.20
2022-12-19T22:36:25.739Z,81.00
2022-12-19T22:38:56.252Z,81.20
2022-12-19T22:41:24.127Z,81.20
2022-12-19T22:43:52.080Z,81.30
2022-12-19T22:46:22.661Z,82.00
2022-12-19T22:48:52.728Z,81.20
2022-12-19T22:51:21.475Z,81.20
2022-12-19T22:53:49.810Z,81.20
2022-12-19T22:56:20.439Z,81.10
2022-12-19T22:58:51.137Z,81.00
2022-12-19T23:01:21.836Z,81.00
2022-12-19T23:03:53.128Z,81.10
2022-12-19T23:06:21.823Z,81.00
2022-12-19T23:08:49.968Z,81.10
2022-12-19T23:11:22.023Z,81.10
2022-12-19T23:13:51.085Z,81.00
2022-12-19T23:16:19.015Z,81.10
2022-12-19T23:18:46.948Z,81.10
2022-12-19T23:21:18.569Z,81.10
2022-12-19T23:23:48.456Z,81.00
2022-12-19T23:26:18.188Z,81.10
2022-12-19T23:28:51.131Z,81.10
2022-12-19T23:31:19.185Z,81.10
2022-12-19T23:33:47.047Z,81.10
2022-12-19T23:36:27.444Z,81.10
2022-12-19T23:39:05.014Z,81.00
2022-12-19T23:41:32.890Z,81.00
2022-12-19T23:44:00.882Z,80.90
2022-12-19T23:46:28.877Z,80.90
2022-12-19T23:48:57.142Z,80.90
2022-12-19T23:51:28.473Z,80.70
2022-12-19T23:53:57.204Z,80.60
2022-12-19T23:56:27.411Z,80.70
2022-12-19T23:58:55.330Z,80.70
